createdAt,value
2017-10-12T00:00:41.821Z,7.00
2017-10-12T00:03:10.262Z,6.80
2017-10-12T00:05:39.329Z,6.90
2017-10-12T00:08:07.953Z,8.17
2017-10-12T00:10:37.529Z,7.17
2017-10-12T00:13:05.963Z,6.50
2017-10-12T00:15:35.426Z,5.77
2017-10-12T00:18:04.016Z,6.83
2017-10-12T00:20:32.938Z,7.53
2017-10-12T00:23:01.368Z,7.10
2017-10-12T00:25:29.716Z,7.00
2017-10-12T00:27:59.128Z,7.03
2017-10-12T00:30:27.475Z,6.30
2017-10-12T00:32:56.113Z,6.30
2017-10-12T00:35:25.072Z,6.90
2017-10-12T00:37:54.246Z,6.57
2017-10-12T00:40:22.545Z,6.60
2017-10-12T00:42:52.156Z,6.60
2017-10-12T00:45:20.588Z,6.43
2017-10-12T00:47:49.177Z,5.23
2017-10-12T00:50:18.392Z,6.47
2017-10-12T00:52:46.862Z,6.40
2017-10-12T00:55:15.373Z,6.20
2017-10-12T00:57:44.785Z,6.60
2017-10-12T01:00:13.417Z,6.23
2017-10-12T01:02:42.152Z,6.63
2017-10-12T01:05:11.332Z,6.60
2017-10-12T01:07:40.890Z,6.20
2017-10-12T01:10:09.774Z,6.30
2017-10-12T01:12:38.142Z,6.80
2017-10-12T01:15:07.253Z,6.40
2017-10-12T01:17:35.569Z,6.13
2017-10-12T01:20:04.482Z,6.30
2017-10-12T01:22:33.933Z,6.20
2017-10-12T01:25:02.986Z,5.87
2017-10-12T01:27:32.030Z,5.70
2017-10-12T01:30:01.272Z,6.23
2017-10-12T01:32:30.862Z,5.77
2017-10-12T01:34:59.586Z,6.80
2017-10-12T01:37:28.922Z,6.00
2017-10-12T01:39:57.253Z,6.47
2017-10-12T01:42:26.540Z,6.97
2017-10-12T01:44:56.213Z,7.07
2017-10-12T01:47:25.712Z,7.47
2017-10-12T01:49:54.852Z,6.43
2017-10-12T01:52:24.876Z,8.23
2017-10-12T01:54:54.684Z,7.60
2017-10-12T01:57:23.147Z,8.00
2017-10-12T01:59:52.037Z,7.00
2017-10-12T02:02:21.043Z,8.70
2017-10-12T02:04:49.401Z,8.17
2017-10-12T02:07:18.599Z,7.40
2017-10-12T02:09:46.900Z,8.53
2017-10-12T02:12:15.796Z,9.17
2017-10-12T02:14:44.168Z,8.40
2017-10-12T02:17:13.158Z,8.07
2017-10-12T02:19:42.313Z,8.60
2017-10-12T02:22:12.207Z,8.27
2017-10-12T02:24:41.287Z,9.63
2017-10-12T02:27:10.819Z,8.47
2017-10-12T02:29:40.267Z,8.10
2017-10-12T02:32:08.616Z,9.03
2017-10-12T02:34:37.194Z,8.50
2017-10-12T02:37:06.364Z,8.40
2017-10-12T02:39:35.671Z,7.90
2017-10-12T02:42:03.994Z,8.47
2017-10-12T02:44:32.369Z,8.13
2017-10-12T02:47:01.515Z,7.80
2017-10-12T02:49:30.622Z,7.73
2017-10-12T02:52:00.832Z,7.97
2017-10-12T02:54:29.945Z,6.60
2017-10-12T02:56:59.028Z,7.30
2017-10-12T02:59:29.912Z,6.10
2017-10-12T03:01:58.240Z,6.67
2017-10-12T03:04:27.930Z,6.43
2017-10-12T03:06:57.008Z,6.63
2017-10-12T03:09:26.329Z,7.00
2017-10-12T03:11:55.379Z,7.30
2017-10-12T03:14:23.976Z,6.20
2017-10-12T03:16:52.279Z,7.17
2017-10-12T03:19:20.617Z,6.77
2017-10-12T03:21:48.961Z,6.60
2017-10-12T03:24:17.289Z,6.20
2017-10-12T03:26:45.624Z,6.20
2017-10-12T03:29:15.329Z,6.00
2017-10-12T03:31:45.620Z,7.10
2017-10-12T03:34:14.702Z,5.77
2017-10-12T03:36:43.692Z,5.50
2017-10-12T03:39:12.899Z,5.73
2017-10-12T03:41:41.217Z,5.13
2017-10-12T03:44:09.539Z,4.87
2017-10-12T03:46:38.446Z,4.33
2017-10-12T03:49:06.764Z,4.50
2017-10-12T03:51:35.572Z,4.40
2017-10-12T03:54:05.087Z,4.23
2017-10-12T03:56:33.407Z,4.17
2017-10-12T03:59:02.053Z,4.47
2017-10-12T04:01:32.029Z,4.43
2017-10-12T04:04:02.016Z,4.20
2017-10-12T04:06:30.363Z,3.77
2017-10-12T04:08:59.124Z,3.00
2017-10-12T04:11:27.907Z,2.90
2017-10-12T04:13:58.647Z,3.73
2017-10-12T04:16:26.959Z,3.10
2017-10-12T04:18:57.743Z,3.27
2017-10-12T04:21:26.503Z,3.07
2017-10-12T04:23:55.283Z,3.13
2017-10-12T04:26:23.634Z,2.50
2017-10-12T04:28:52.728Z,2.50
2017-10-12T04:31:21.840Z,2.93
2017-10-12T04:33:52.352Z,2.80
2017-10-12T04:36:21.197Z,3.07
2017-10-12T04:38:50.890Z,3.10
2017-10-12T04:41:20.387Z,3.10
2017-10-12T04:43:48.761Z,3.67
2017-10-12T04:46:18.113Z,3.80
2017-10-12T04:48:46.462Z,3.43
2017-10-12T04:51:14.820Z,3.90
2017-10-12T04:53:43.996Z,4.70
2017-10-12T04:56:14.793Z,3.90
2017-10-12T04:58:43.996Z,4.57
2017-10-12T05:01:12.325Z,4.63
2017-10-12T05:03:40.953Z,4.60
2017-10-12T05:06:10.509Z,5.03
2017-10-12T05:08:39.645Z,5.87
2017-10-12T05:11:08.342Z,5.10
2017-10-12T05:13:36.676Z,5.93
2017-10-12T05:16:05.156Z,5.87
2017-10-12T05:18:33.529Z,6.17
2017-10-12T05:21:03.184Z,6.20
2017-10-12T05:23:31.506Z,6.53
2017-10-12T05:26:01.021Z,6.53
2017-10-12T05:28:30.106Z,6.50
2017-10-12T05:30:58.429Z,6.57
2017-10-12T05:33:26.763Z,6.47
2017-10-12T05:35:55.898Z,5.83
2017-10-12T05:38:26.150Z,6.80
2017-10-12T05:40:55.332Z,6.70
2017-10-12T05:43:24.446Z,6.83
2017-10-12T05:45:52.754Z,7.23
2017-10-12T05:48:21.969Z,6.03
2017-10-12T05:50:51.052Z,6.13
2017-10-12T05:53:20.185Z,5.10
2017-10-12T16:05:47.262Z,2.97
2017-10-12T16:08:15.620Z,3.10
2017-10-12T16:10:43.974Z,3.70
2017-10-12T16:13:13.874Z,3.07
2017-10-12T16:15:42.233Z,3.70
2017-10-12T16:18:10.790Z,3.50
2017-10-12T16:20:39.773Z,3.90
2017-10-12T16:23:09.172Z,3.07
2017-10-12T16:25:39.362Z,3.73
2017-10-12T16:28:08.620Z,3.17
2017-10-12T16:30:36.971Z,3.67
2017-10-12T16:35:38.059Z,4.00
2017-10-12T16:38:06.494Z,4.10
2017-10-12T16:40:35.639Z,3.43
2017-10-12T16:45:29.067Z,2.80
2017-10-12T16:47:57.401Z,2.90
2017-10-12T16:50:56.321Z,3.40
2017-10-12T16:52:55.926Z,3.30
2017-10-12T16:57:52.602Z,3.77
2017-10-12T17:00:21.869Z,3.80
2017-10-12T17:02:50.221Z,3.57
2017-10-12T17:05:18.631Z,3.40
2017-10-12T17:07:47.876Z,2.87
2017-10-12T17:10:17.892Z,3.60
2017-10-12T17:12:46.649Z,3.40
2017-10-12T17:15:15.053Z,3.40
2017-10-12T17:17:46.362Z,3.10
2017-10-12T17:20:14.807Z,3.50
2017-10-12T17:22:43.968Z,3.67
2017-10-12T17:25:12.327Z,2.67
2017-10-12T17:27:40.673Z,2.87
2017-10-12T17:30:09.342Z,3.07
2017-10-12T17:32:38.455Z,3.93
2017-10-12T17:35:07.233Z,2.90
2017-10-12T17:37:35.605Z,3.67
2017-10-12T17:40:04.927Z,3.50
2017-10-12T17:42:34.063Z,2.50
2017-10-12T17:45:02.696Z,2.43
2017-10-12T17:47:31.059Z,3.00
2017-10-12T17:50:02.039Z,2.80
2017-10-12T17:52:30.630Z,3.47
2017-10-12T17:54:59.764Z,3.27
2017-10-12T17:57:28.111Z,3.07
2017-10-12T17:59:57.842Z,2.83
2017-10-12T18:02:26.982Z,3.80
2017-10-12T18:04:55.318Z,3.10
2017-10-12T18:07:24.273Z,3.83
2017-10-12T18:09:52.654Z,3.27
2017-10-12T18:12:21.674Z,3.23
2017-10-12T18:14:51.356Z,3.60
2017-10-12T18:17:20.556Z,3.57
2017-10-12T18:19:49.027Z,2.87
2017-10-12T18:22:22.062Z,3.50
2017-10-12T18:24:50.459Z,3.23
2017-10-12T18:27:19.572Z,3.33
2017-10-12T18:29:48.738Z,3.60
2017-10-12T18:32:17.862Z,4.03
2017-10-12T18:34:46.853Z,3.53
2017-10-12T18:37:16.052Z,3.90
2017-10-12T18:39:47.004Z,3.30
2017-10-12T18:42:15.339Z,3.30
2017-10-12T18:44:44.293Z,2.73
2017-10-12T18:47:12.680Z,3.37
2017-10-12T18:49:42.367Z,3.27
2017-10-12T18:52:10.741Z,3.20
2017-10-12T18:54:40.553Z,2.60
2017-10-12T18:57:08.942Z,3.10
2017-10-12T18:59:38.556Z,3.43
2017-10-12T19:02:07.183Z,3.67
2017-10-12T19:04:35.937Z,3.57
2017-10-12T19:07:05.107Z,2.80
2017-10-12T19:09:35.015Z,3.03
2017-10-12T19:12:04.710Z,3.00
2017-10-12T19:14:33.096Z,3.07
2017-10-12T19:17:02.161Z,3.10
2017-10-12T19:19:31.409Z,3.67
2017-10-12T19:22:00.781Z,3.10
2017-10-12T19:24:29.998Z,3.33
2017-10-12T19:26:59.548Z,3.10
2017-10-12T19:29:28.307Z,3.47
2017-10-12T19:31:57.664Z,3.50
2017-10-12T19:34:26.234Z,3.00
2017-10-12T19:36:54.630Z,3.50
2017-10-12T19:39:23.650Z,3.10
2017-10-12T19:41:53.674Z,4.17
2017-10-12T19:44:24.298Z,4.47
2017-10-12T19:46:53.620Z,2.70
2017-10-12T19:49:22.296Z,4.00
2017-10-12T19:51:51.451Z,3.30
2017-10-12T19:54:19.796Z,3.27
2017-10-12T19:56:48.166Z,3.30
2017-10-12T19:59:16.545Z,3.33
2017-10-12T20:01:44.912Z,3.80
2017-10-12T20:04:13.735Z,3.17
2017-10-12T20:06:42.400Z,3.77
2017-10-12T20:09:10.789Z,3.80
2017-10-12T20:11:39.145Z,3.00
2017-10-12T20:16:38.569Z,4.10
2017-10-12T20:19:07.721Z,4.00
2017-10-12T20:21:36.106Z,2.40
2017-10-12T20:26:34.510Z,2.93
2017-10-12T20:31:32.784Z,4.10
2017-10-12T20:34:01.202Z,3.50
2017-10-12T20:36:29.593Z,3.23
2017-10-12T20:38:57.945Z,3.17
2017-10-12T20:41:27.993Z,2.70
2017-10-12T20:43:56.366Z,3.33
2017-10-12T20:46:25.512Z,3.03
2017-10-12T20:48:53.920Z,2.40
2017-10-12T20:51:22.852Z,2.87
2017-10-12T20:53:51.915Z,3.33
2017-10-12T20:56:20.292Z,3.90
2017-10-12T20:58:50.035Z,3.00
2017-10-12T21:01:19.119Z,2.37
2017-10-12T21:03:47.505Z,3.00
2017-10-12T21:06:15.962Z,2.50
2017-10-12T21:08:44.722Z,2.50
2017-10-12T21:11:13.107Z,2.90
2017-10-12T21:13:42.892Z,2.20
2017-10-12T21:16:12.002Z,2.07
2017-10-12T21:18:40.388Z,2.83
2017-10-12T21:21:08.794Z,3.30
2017-10-12T21:23:37.160Z,2.60
2017-10-12T21:26:06.195Z,3.10
2017-10-12T21:28:36.034Z,2.90
2017-10-12T21:31:04.852Z,2.43
2017-10-12T21:33:33.611Z,3.27
2017-10-12T21:36:03.512Z,2.30
2017-10-12T21:38:32.645Z,2.30
2017-10-12T21:41:01.193Z,3.57
2017-10-12T21:43:29.587Z,3.00
2017-10-12T21:45:57.993Z,2.17
2017-10-12T21:48:26.364Z,2.50
2017-10-12T21:50:54.774Z,3.10
2017-10-12T21:53:23.153Z,2.87
2017-10-12T21:55:52.429Z,2.57
2017-10-12T21:58:21.998Z,3.03
2017-10-12T22:00:51.258Z,2.17
2017-10-12T22:03:20.441Z,2.70
2017-10-12T22:05:49.745Z,2.60
2017-10-12T22:08:18.122Z,3.37
2017-10-12T22:10:47.251Z,3.30
2017-10-12T22:13:17.409Z,2.87
2017-10-12T22:15:46.122Z,2.53
2017-10-12T22:18:14.763Z,3.13
2017-10-12T22:20:44.307Z,2.80
2017-10-12T22:23:14.057Z,2.97
2017-10-12T22:25:44.659Z,3.20
2017-10-12T22:28:13.866Z,2.67
2017-10-12T22:30:42.254Z,2.93
2017-10-12T22:33:11.459Z,2.10
2017-10-12T22:35:40.626Z,2.93
2017-10-12T22:38:08.995Z,2.60
2017-10-12T22:40:40.265Z,3.00
2017-10-12T22:43:08.937Z,2.53
2017-10-12T22:45:38.292Z,2.63
2017-10-12T22:48:07.541Z,3.07
2017-10-12T22:50:36.447Z,2.03
2017-10-12T22:53:05.701Z,2.90
2017-10-12T22:55:34.337Z,2.87
2017-10-12T22:58:03.419Z,3.10
2017-10-12T23:00:32.210Z,2.30
2017-10-12T23:03:00.849Z,3.27
2017-10-12T23:05:31.000Z,3.63
2017-10-12T23:07:59.652Z,2.77
2017-10-12T23:10:29.346Z,2.83
2017-10-12T23:12:58.538Z,2.80
2017-10-12T23:15:26.915Z,2.40
2017-10-12T23:17:56.248Z,2.03
2017-10-12T23:20:25.917Z,2.60
2017-10-12T23:22:54.302Z,2.37
2017-10-12T23:25:22.694Z,2.60
2017-10-12T23:27:53.860Z,2.87
2017-10-12T23:30:23.808Z,2.73
2017-10-12T23:32:54.036Z,3.67
2017-10-12T23:35:23.497Z,2.77
2017-10-12T23:37:52.635Z,3.33
2017-10-12T23:40:21.920Z,2.83
2017-10-12T23:42:51.243Z,2.40
2017-10-12T23:45:19.885Z,2.60
2017-10-12T23:47:49.909Z,3.53
2017-10-12T23:50:18.402Z,2.73
2017-10-12T23:52:46.809Z,2.97
2017-10-12T23:55:15.895Z,2.17
2017-10-12T23:57:45.201Z,2.67
